Time;durP1;ratioP1;P1;durP2;ratioP2;P2;SDS_P1;SDS_P2;PMS_P1;PMS_P2;Temp;Humidity;BMP_temperature;BMP_pressure;BME280_temperature;BME280_humidity;BME280_pressure;Samples;Min_cycle;Max_cycle;Signal;HPM_P1;HPM_P2
2021/06/07 00:02:11;;;;;;;2.35;0.90;;;;;;;-148.58;100.00;55229.56;4993137;28;20033;-62
2021/06/07 00:04:37;;;;;;;1.52;0.90;;;;;;;-148.58;100.00;55229.56;4992879;28;20030;-63
2021/06/07 00:07:05;;;;;;;2.05;1.05;;;;;;;-148.58;100.00;55229.56;4993106;28;20034;-61
2021/06/07 00:09:31;;;;;;;2.03;0.90;;;;;;;-148.58;100.00;55229.56;4992959;28;20108;-61
2021/06/07 00:12:00;;;;;;;2.28;0.90;;;;;;;-148.58;100.00;55229.56;4992896;28;20066;-62
2021/06/07 00:14:29;;;;;;;1.13;1.02;;;;;;;-148.58;100.00;55229.56;4993049;28;20037;-61
2021/06/07 00:16:55;;;;;;;1.17;0.95;;;;;;;-148.58;100.00;55229.56;4992821;28;20383;-62
2021/06/07 00:19:23;;;;;;;3.45;1.30;;;;;;;-148.58;100.00;55229.56;4993065;28;20022;-61
2021/06/07 00:21:49;;;;;;;4.10;1.30;;;;;;;-148.58;100.00;55229.56;4992611;28;20414;-62
2021/06/07 00:24:19;;;;;;;3.42;1.00;;;;;;;-148.58;100.00;55229.56;4992997;28;20073;-62
2021/06/07 00:26:46;;;;;;;3.03;1.30;;;;;;;-148.58;100.00;55229.56;4992637;28;20054;-62
2021/06/07 00:29:11;;;;;;;1.27;0.90;;;;;;;-148.58;100.00;55229.56;4992976;28;20322;-62
2021/06/07 00:31:37;;;;;;;1.90;0.90;;;;;;;-148.58;100.00;55229.56;4992632;28;20058;-61
2021/06/07 00:34:04;;;;;;;1.58;1.00;;;;;;;-148.58;100.00;55229.56;4992899;28;20027;-62
2021/06/07 00:36:29;;;;;;;1.05;0.85;;;;;;;-148.58;100.00;55229.56;4992860;28;20026;-62
2021/06/07 00:38:55;;;;;;;1.17;0.77;;;;;;;-148.58;100.00;55229.56;4996261;28;20124;-61
2021/06/07 00:41:22;;;;;;;1.60;1.20;;;;;;;-148.58;100.00;55229.56;4996720;28;20015;-61
2021/06/07 00:43:58;;;;;;;1.48;1.05;;;;;;;-148.58;100.00;55229.56;4996445;28;20026;-62
2021/06/07 00:46:25;;;;;;;1.95;0.98;;;;;;;-148.58;100.00;55229.56;4996613;28;20536;-62
2021/06/07 00:48:51;;;;;;;1.83;0.95;;;;;;;-148.58;100.00;55229.56;4996187;28;20030;-62
2021/06/07 00:51:16;;;;;;;0.98;0.88;;;;;;;-148.58;100.00;55229.56;4996374;28;20049;-62
2021/06/07 00:53:42;;;;;;;0.88;0.85;;;;;;;-148.58;100.00;55229.56;4996184;28;20030;-62
2021/06/07 00:56:10;;;;;;;2.88;1.33;;;;;;;-148.58;100.00;55229.56;4996383;28;20106;-61
2021/06/07 00:58:40;;;;;;;1.52;0.82;;;;;;;-148.58;100.00;55229.56;4996213;28;20218;-62
2021/06/07 01:01:11;;;;;;;1.05;0.70;;;;;;;-148.58;100.00;55229.56;4996331;28;20030;-63
2021/06/07 01:03:38;;;;;;;2.05;0.95;;;;;;;-148.58;100.00;55229.56;4995975;28;20038;-62
2021/06/07 01:06:05;;;;;;;1.20;1.10;;;;;;;-148.58;100.00;55229.56;4996180;28;20028;-61
2021/06/07 01:08:30;;;;;;;1.23;1.05;;;;;;;-148.58;100.00;55229.56;4996128;28;20022;-62
2021/06/07 01:10:55;;;;;;;1.58;1.40;;;;;;;-148.58;100.00;55229.56;4995819;28;20527;-62
2021/06/07 01:13:22;;;;;;;1.48;0.95;;;;;;;-148.58;100.00;55229.56;4996121;28;20026;-62
2021/06/07 01:15:53;;;;;;;1.60;1.08;;;;;;;-148.58;100.00;55229.56;4994566;28;20054;-61
2021/06/07 01:18:20;;;;;;;3.38;1.35;;;;;;;-148.58;100.00;55229.56;4996009;28;20037;-61
2021/06/07 01:20:47;;;;;;;2.30;1.20;;;;;;;-148.58;100.00;55229.56;4995662;28;20019;-62
2021/06/07 01:23:13;;;;;;;1.55;1.02;;;;;;;-148.58;100.00;55229.56;4994556;28;20050;-62
2021/06/07 01:25:42;;;;;;;2.45;1.08;;;;;;;-148.58;100.00;55229.56;4995527;28;20070;-62
2021/06/07 01:28:10;;;;;;;2.42;1.25;;;;;;;-148.58;100.00;55229.56;4995820;28;20031;-62
2021/06/07 01:30:38;;;;;;;1.73;1.08;;;;;;;-148.58;100.00;55229.56;4995568;28;20038;-62
2021/06/07 01:33:06;;;;;;;2.80;1.23;;;;;;;-148.58;100.00;55229.56;4995999;28;20025;-62
2021/06/07 01:35:31;;;;;;;1.35;1.00;;;;;;;-148.58;100.00;55229.56;4995452;28;20034;-62
2021/06/07 01:37:58;;;;;;;1.33;1.10;;;;;;;-148.58;100.00;55229.56;4995521;28;20411;-62
2021/06/07 01:40:35;;;;;;;2.42;0.93;;;;;;;-148.58;100.00;55229.56;4995612;28;20038;-61
2021/06/07 01:43:01;;;;;;;1.20;1.10;;;;;;;-148.58;100.00;55229.56;4994320;28;20458;-62
2021/06/07 01:45:29;;;;;;;2.55;1.15;;;;;;;-148.58;100.00;55229.56;4995442;28;20084;-62
2021/06/07 01:47:56;;;;;;;2.20;1.08;;;;;;;-148.58;100.00;55229.56;4995002;28;20030;-62
2021/06/07 01:50:21;;;;;;;1.45;1.00;;;;;;;-148.58;100.00;55229.56;4994401;28;20098;-62
2021/06/07 01:52:48;;;;;;;1.50;0.98;;;;;;;-148.58;100.00;55229.56;4995075;28;20038;-62
2021/06/07 01:55:31;;;;;;;1.35;0.82;;;;;;;-148.58;100.00;55229.56;4994111;28;20041;-62
2021/06/07 01:57:57;;;;;;;1.35;1.05;;;;;;;-148.58;100.00;55229.56;4995168;28;20022;-62
2021/06/07 02:00:42;;;;;;;1.27;0.90;;;;;;;-148.58;100.00;55229.56;4995215;28;20038;-62
2021/06/07 02:03:09;;;;;;;3.95;1.23;;;;;;;-148.58;100.00;55229.56;4995169;28;20026;-62
2021/06/07 02:05:38;;;;;;;1.20;1.08;;;;;;;-148.58;100.00;55229.56;4994902;28;20463;-63
2021/06/07 02:08:07;;;;;;;1.45;0.75;;;;;;;-148.58;100.00;55229.56;4995356;28;20030;-62
2021/06/07 02:10:36;;;;;;;1.33;0.88;;;;;;;-148.58;100.00;55229.56;4994910;28;20105;-62
2021/06/07 02:13:02;;;;;;;1.52;1.00;;;;;;;-148.58;100.00;55229.56;4994892;28;20133;-62
2021/06/07 02:15:27;;;;;;;1.58;1.00;;;;;;;-148.58;100.00;55229.56;4994863;28;20139;-62
2021/06/07 02:17:52;;;;;;;1.17;0.77;;;;;;;-148.58;100.00;55229.56;4994729;28;20061;-62
2021/06/07 02:20:21;;;;;;;1.60;0.98;;;;;;;-148.58;100.00;55229.56;4994827;28;20025;-61
2021/06/07 02:22:47;;;;;;;1.65;1.20;;;;;;;-148.58;100.00;55229.56;4993094;28;20050;-62
2021/06/07 02:25:16;;;;;;;2.22;1.13;;;;;;;-148.58;100.00;55229.56;4994759;28;20053;-62
2021/06/07 02:27:41;;;;;;;2.53;0.80;;;;;;;-148.58;100.00;55229.56;4994473;28;20023;-62
2021/06/07 02:30:11;;;;;;;1.05;0.90;;;;;;;-148.58;100.00;55229.56;4994623;28;20022;-61
2021/06/07 02:32:37;;;;;;;1.30;1.08;;;;;;;-148.58;100.00;55229.56;4994432;28;20041;-62
2021/06/07 02:35:08;;;;;;;1.67;0.95;;;;;;;-148.58;100.00;55229.56;4994777;28;20489;-62
2021/06/07 02:37:34;;;;;;;1.80;1.10;;;;;;;-148.58;100.00;55229.56;4994354;28;20030;-63
2021/06/07 02:40:00;;;;;;;1.30;0.90;;;;;;;-148.58;100.00;55229.56;4994398;28;20034;-62
2021/06/07 02:42:25;;;;;;;2.67;1.23;;;;;;;-148.58;100.00;55229.56;4994494;28;20104;-62
2021/06/07 02:44:50;;;;;;;1.05;0.85;;;;;;;-148.58;100.00;55229.56;4994082;28;20033;-63
2021/06/07 02:47:16;;;;;;;1.85;0.80;;;;;;;-148.58;100.00;55229.56;4994349;28;20026;-63
2021/06/07 02:49:42;;;;;;;1.75;1.00;;;;;;;-148.58;100.00;55229.56;4994045;28;20061;-63
2021/06/07 02:52:07;;;;;;;1.90;1.00;;;;;;;-148.58;100.00;55229.56;4994093;28;20117;-62
2021/06/07 02:54:33;;;;;;;2.20;1.08;;;;;;;-148.58;100.00;55229.56;4992892;28;20053;-62
2021/06/07 02:56:58;;;;;;;0.88;0.80;;;;;;;-148.58;100.00;55229.56;4993922;28;20022;-63
2021/06/07 02:59:24;;;;;;;2.10;0.80;;;;;;;-148.58;100.00;55229.56;4993973;28;20030;-63
2021/06/07 03:01:49;;;;;;;3.53;0.90;;;;;;;-148.58;100.00;55229.56;4993598;28;20065;-63
2021/06/07 03:04:14;;;;;;;1.73;0.80;;;;;;;-148.58;100.00;55229.56;4994057;28;20117;-62
2021/06/07 03:06:40;;;;;;;1.38;0.63;;;;;;;-148.58;100.00;55229.56;4993686;28;20022;-62
2021/06/07 03:09:05;;;;;;;1.95;0.80;;;;;;;-148.58;100.00;55229.56;4993943;28;20030;-62
2021/06/07 03:11:30;;;;;;;1.83;0.90;;;;;;;-148.58;100.00;55229.56;4993663;28;20364;-63
2021/06/07 03:13:56;;;;;;;1.70;1.00;;;;;;;-148.58;100.00;55229.56;4993676;28;20112;-62
2021/06/07 03:16:21;;;;;;;1.75;1.00;;;;;;;-148.58;100.00;55229.56;4993870;28;20030;-62
2021/06/07 03:18:47;;;;;;;1.80;0.82;;;;;;;-148.58;100.00;55229.56;4993462;28;20027;-63
2021/06/07 03:21:12;;;;;;;1.42;0.80;;;;;;;-148.58;100.00;55229.56;4993755;28;20458;-63
2021/06/07 03:23:39;;;;;;;0.80;0.70;;;;;;;-148.58;100.00;55229.56;4992043;28;20050;-63
2021/06/07 03:26:05;;;;;;;1.30;1.08;;;;;;;-148.58;100.00;55229.56;4993619;28;20025;-62
2021/06/07 03:28:32;;;;;;;0.82;0.70;;;;;;;-148.58;100.00;55229.56;4993532;28;20018;-62
2021/06/07 03:30:57;;;;;;;2.45;0.90;;;;;;;-148.58;100.00;55229.56;4993371;28;20088;-63
2021/06/07 03:33:24;;;;;;;1.73;1.08;;;;;;;-148.58;100.00;55229.56;4993791;28;20454;-62
2021/06/07 03:35:51;;;;;;;1.80;0.70;;;;;;;-148.58;100.00;55229.56;4993273;28;20462;-62
2021/06/07 03:38:17;;;;;;;3.05;0.98;;;;;;;-148.58;100.00;55229.56;4993755;28;20462;-62
2021/06/07 03:40:47;;;;;;;1.33;0.80;;;;;;;-148.58;100.00;55229.56;4993425;28;20027;-62
2021/06/07 03:43:14;;;;;;;1.33;0.75;;;;;;;-148.58;100.00;55229.56;4993470;28;20026;-63
2021/06/07 03:45:39;;;;;;;1.15;0.80;;;;;;;-148.58;100.00;55229.56;4993087;28;20037;-63
2021/06/07 03:48:05;;;;;;;1.20;0.73;;;;;;;-148.58;100.00;55229.56;4993332;28;20026;-62
2021/06/07 03:50:34;;;;;;;1.92;0.88;;;;;;;-148.58;100.00;55229.56;4993130;28;20026;-62
2021/06/07 03:53:00;;;;;;;1.30;0.80;;;;;;;-148.58;100.00;55229.56;4993147;28;20030;-62
2021/06/07 03:55:29;;;;;;;2.20;0.80;;;;;;;-148.58;100.00;55229.56;4991970;28;20041;-62
2021/06/07 03:57:56;;;;;;;0.75;0.40;;;;;;;-148.58;100.00;55229.56;4993068;28;20040;-62
2021/06/07 04:00:25;;;;;;;1.30;0.80;;;;;;;-148.58;100.00;55229.56;4993148;28;20026;-62
2021/06/07 04:02:50;;;;;;;1.00;0.45;;;;;;;-148.58;100.00;55229.56;4992814;28;20034;-63
2021/06/07 04:05:15;;;;;;;1.77;0.95;;;;;;;-148.58;100.00;55229.56;4993197;28;20497;-62
2021/06/07 04:07:41;;;;;;;1.67;0.65;;;;;;;-148.58;100.00;55229.56;4992866;28;20300;-62
2021/06/07 04:10:10;;;;;;;0.80;0.70;;;;;;;-148.58;100.00;55229.56;4992803;28;20030;-62
2021/06/07 04:12:36;;;;;;;1.50;0.70;;;;;;;-148.58;100.00;55229.56;4994517;28;20053;-62
2021/06/07 04:15:03;;;;;;;3.80;0.90;;;;;;;-148.58;100.00;55229.56;4997075;28;20026;-63
2021/06/07 04:17:29;;;;;;;2.25;0.80;;;;;;;-148.58;100.00;55229.56;4996785;28;20037;-62
2021/06/07 04:19:54;;;;;;;2.45;1.05;;;;;;;-148.58;100.00;55229.56;4997109;28;20022;-62
2021/06/07 04:22:20;;;;;;;1.70;0.75;;;;;;;-148.58;100.00;55229.56;4996930;28;20042;-62
2021/06/07 04:24:46;;;;;;;2.33;0.95;;;;;;;-148.58;100.00;55229.56;4995431;28;20026;-63
2021/06/07 04:27:13;;;;;;;2.13;0.73;;;;;;;-148.58;100.00;55229.56;4996932;28;20080;-62
2021/06/07 04:29:39;;;;;;;2.25;0.80;;;;;;;-148.58;100.00;55229.56;4996712;28;20153;-62
2021/06/07 04:32:06;;;;;;;3.35;0.80;;;;;;;-148.58;100.00;55229.56;4996731;28;20129;-62
2021/06/07 04:34:31;;;;;;;2.95;0.90;;;;;;;-148.58;100.00;55229.56;4996751;28;20030;-63
2021/06/07 04:36:56;;;;;;;1.20;0.57;;;;;;;-148.58;100.00;55229.56;4996740;28;20042;-63
2021/06/07 04:39:22;;;;;;;1.77;0.57;;;;;;;-148.58;100.00;55229.56;4996992;28;20029;-62
2021/06/07 04:41:47;;;;;;;2.20;1.08;;;;;;;-148.58;100.00;55229.56;4995216;28;20068;-62
2021/06/07 04:44:12;;;;;;;2.97;1.02;;;;;;;-148.58;100.00;55229.56;4996626;28;20022;-62
2021/06/07 04:46:38;;;;;;;1.52;0.60;;;;;;;-148.58;100.00;55229.56;4996340;28;20027;-63
2021/06/07 04:49:03;;;;;;;1.17;0.40;;;;;;;-148.58;100.00;55229.56;4996486;28;20018;-62
2021/06/07 04:51:29;;;;;;;1.25;0.60;;;;;;;-148.58;100.00;55229.56;4996345;28;20030;-62
2021/06/07 04:53:54;;;;;;;1.52;0.52;;;;;;;-148.58;100.00;55229.56;4996283;28;20105;-63
2021/06/07 04:56:20;;;;;;;1.95;0.30;;;;;;;-148.58;100.00;55229.56;4996487;28;20061;-63
2021/06/07 04:58:45;;;;;;;1.27;0.40;;;;;;;-148.58;100.00;55229.56;4996079;28;20057;-64
2021/06/07 05:01:13;;;;;;;1.85;0.47;;;;;;;-148.58;100.00;55229.56;4996300;28;20414;-62
2021/06/07 05:03:38;;;;;;;2.50;0.60;;;;;;;-148.58;100.00;55229.56;4996024;28;20434;-62
2021/06/07 05:06:05;;;;;;;0.35;0.30;;;;;;;-148.58;100.00;55229.56;4996235;28;20097;-63
2021/06/07 05:08:31;;;;;;;2.90;0.50;;;;;;;-148.58;100.00;55229.56;4996116;28;20033;-63
2021/06/07 05:10:57;;;;;;;0.90;0.35;;;;;;;-148.58;100.00;55229.56;4995891;28;20032;-62
2021/06/07 05:13:24;;;;;;;1.30;0.60;;;;;;;-148.58;100.00;55229.56;4996041;28;20030;-62
2021/06/07 05:15:51;;;;;;;1.77;0.50;;;;;;;-148.58;100.00;55229.56;4995788;28;20030;-62
2021/06/07 05:18:16;;;;;;;0.85;0.40;;;;;;;-148.58;100.00;55229.56;4996091;28;20022;-63
2021/06/07 05:20:42;;;;;;;1.40;0.30;;;;;;;-148.58;100.00;55229.56;4995566;28;20034;-63
2021/06/07 05:23:09;;;;;;;0.77;0.40;;;;;;;-148.58;100.00;55229.56;4995533;28;20042;-62
2021/06/07 05:25:36;;;;;;;1.75;0.50;;;;;;;-148.58;100.00;55229.56;4995584;28;20037;-62
2021/06/07 05:28:03;;;;;;;0.57;0.20;;;;;;;-148.58;100.00;55229.56;4995784;28;20033;-63
2021/06/07 05:30:30;;;;;;;0.30;0.30;;;;;;;-148.58;100.00;55229.56;4993611;28;20130;-63
2021/06/07 05:32:56;;;;;;;2.25;0.28;;;;;;;-148.58;100.00;55229.56;4995451;28;20493;-62
2021/06/07 05:35:25;;;;;;;2.53;0.40;;;;;;;-148.58;100.00;55229.56;4995701;28;20027;-63
2021/06/07 05:37:51;;;;;;;1.35;0.75;;;;;;;-148.58;100.00;55229.56;4996413;28;20018;-64
2021/06/07 05:40:19;;;;;;;2.67;0.40;;;;;;;-148.58;100.00;55229.56;4995975;28;20037;-62
2021/06/07 05:42:46;;;;;;;2.08;0.40;;;;;;;-148.58;100.00;55229.56;4995290;28;20022;-62
2021/06/07 05:45:12;;;;;;;0.40;0.20;;;;;;;-148.58;100.00;55229.56;4995726;28;20030;-62
2021/06/07 05:47:39;;;;;;;2.45;0.35;;;;;;;-148.58;100.00;55229.56;4995225;28;20508;-63
2021/06/07 05:50:06;;;;;;;0.85;0.43;;;;;;;-148.58;100.00;55229.56;4995363;28;20034;-62
2021/06/07 05:52:31;;;;;;;0.82;0.25;;;;;;;-148.58;100.00;55229.56;4993969;28;20022;-63
2021/06/07 05:54:57;;;;;;;4.97;0.75;;;;;;;-148.58;100.00;55229.56;4993844;28;20420;-63
2021/06/07 05:57:22;;;;;;;1.27;0.50;;;;;;;-148.58;100.00;55229.56;4995262;28;20037;-63
2021/06/07 05:59:47;;;;;;;0.60;0.15;;;;;;;-148.58;100.00;55229.56;4995030;28;20102;-63
2021/06/07 06:02:13;;;;;;;0.68;0.30;;;;;;;-148.58;100.00;55229.56;4995166;28;20107;-63
2021/06/07 06:04:40;;;;;;;1.05;0.30;;;;;;;-148.58;100.00;55229.56;4995190;28;20297;-62
2021/06/07 06:07:06;;;;;;;1.00;0.22;;;;;;;-148.58;100.00;55229.56;4995184;28;20022;-62
2021/06/07 06:09:32;;;;;;;1.70;0.40;;;;;;;-148.58;100.00;55229.56;4994605;28;20026;-63
2021/06/07 06:11:57;;;;;;;0.98;0.20;;;;;;;-148.58;100.00;55229.56;4994353;28;20118;-63
2021/06/07 06:14:24;;;;;;;0.98;0.40;;;;;;;-148.58;100.00;55229.56;4994704;28;20454;-70
2021/06/07 06:16:49;;;;;;;1.70;0.40;;;;;;;-148.58;100.00;55229.56;4994079;28;20034;-63
2021/06/07 06:19:15;;;;;;;0.98;0.40;;;;;;;-148.58;100.00;55229.56;4993001;28;20057;-64
2021/06/07 06:21:40;;;;;;;0.60;0.30;;;;;;;-148.58;100.00;55229.56;4993331;28;20045;-64
2021/06/07 06:24:08;;;;;;;1.73;0.40;;;;;;;-148.58;100.00;55229.56;5000758;28;20030;-64
2021/06/07 06:26:33;;;;;;;3.40;0.25;;;;;;;-148.58;100.00;55229.56;4993848;28;20026;-63
2021/06/07 06:28:59;;;;;;;1.20;0.40;;;;;;;-148.58;100.00;55229.56;4996827;28;20355;-63
2021/06/07 06:31:24;;;;;;;1.48;0.55;;;;;;;-148.58;100.00;55229.56;4992918;28;20320;-63
2021/06/07 06:33:49;;;;;;;0.70;0.47;;;;;;;-148.58;100.00;55229.56;4992611;28;20033;-64
2021/06/07 06:36:15;;;;;;;1.85;0.65;;;;;;;-148.58;100.00;55229.56;4992974;28;20130;-64
2021/06/07 06:38:40;;;;;;;0.35;0.20;;;;;;;-148.58;100.00;55229.56;4992942;28;20071;-63
2021/06/07 06:41:06;;;;;;;0.90;0.40;;;;;;;-148.58;100.00;55229.56;4993270;28;20386;-63
2021/06/07 06:43:32;;;;;;;0.73;0.25;;;;;;;-148.58;100.00;55229.56;4993511;28;20445;-63
2021/06/07 06:45:57;;;;;;;2.17;0.50;;;;;;;-148.58;100.00;55229.56;4997266;28;20076;-63
2021/06/07 06:48:23;;;;;;;0.70;0.20;;;;;;;-148.58;100.00;55229.56;4986090;28;20109;-64
2021/06/07 06:50:48;;;;;;;1.38;0.20;;;;;;;-148.58;100.00;55229.56;4992893;28;20034;-63
2021/06/07 06:53:16;;;;;;;0.70;0.20;;;;;;;-148.58;100.00;55229.56;4993021;28;20473;-63
2021/06/07 06:55:42;;;;;;;1.20;0.15;;;;;;;-148.58;100.00;55229.56;4991721;28;20022;-64
2021/06/07 06:58:08;;;;;;;0.80;0.50;;;;;;;-148.58;100.00;55229.56;4992152;28;20482;-64
2021/06/07 07:00:37;;;;;;;0.55;0.22;;;;;;;-148.58;100.00;55229.56;5000183;28;20026;-63
2021/06/07 07:03:05;;;;;;;0.55;0.20;;;;;;;-148.58;100.00;55229.56;4989927;28;20121;-63
2021/06/07 07:05:31;;;;;;;0.95;0.30;;;;;;;-148.58;100.00;55229.56;4988704;28;20477;-64
2021/06/07 07:07:56;;;;;;;1.00;0.40;;;;;;;-148.58;100.00;55229.56;4998123;28;20105;-64
2021/06/07 07:10:21;;;;;;;0.90;0.50;;;;;;;-148.58;100.00;55229.56;4989157;28;20057;-63
2021/06/07 07:12:47;;;;;;;1.77;0.43;;;;;;;-148.58;100.00;55229.56;4988811;28;20429;-64
2021/06/07 07:15:13;;;;;;;21.90;13.57;;;;;;;-148.58;100.00;55229.56;4984418;28;20060;-65
2021/06/07 07:17:38;;;;;;;36.05;22.70;;;;;;;-148.58;100.00;55229.56;4989240;28;20348;-64
2021/06/07 07:20:05;;;;;;;54.00;33.65;;;;;;;-148.58;100.00;55229.56;4991890;28;20061;-65
2021/06/07 07:22:30;;;;;;;48.22;30.77;;;;;;;-148.58;100.00;55229.56;4988163;28;20037;-64
2021/06/07 07:24:55;;;;;;;37.13;25.30;;;;;;;-148.58;100.00;55229.56;4989250;28;20034;-68
2021/06/07 07:27:21;;;;;;;30.25;21.20;;;;;;;-148.58;100.00;55229.56;4988783;28;20029;-68
2021/06/07 07:29:47;;;;;;;21.90;16.38;;;;;;;-148.58;100.00;55229.56;4985658;28;20109;-67
2021/06/07 07:32:13;;;;;;;18.83;13.32;;;;;;;-148.58;100.00;55229.56;4985936;28;20421;-63
2021/06/07 07:34:40;;;;;;;12.95;10.30;;;;;;;-148.58;100.00;55229.56;4979562;28;20030;-63
2021/06/07 07:37:05;;;;;;;10.25;9.00;;;;;;;-148.58;100.00;55229.56;4990460;28;20484;-64
2021/06/07 07:39:31;;;;;;;9.20;7.75;;;;;;;-148.58;100.00;55229.56;4992927;28;20121;-63
2021/06/07 07:41:56;;;;;;;10.25;8.05;;;;;;;-148.58;100.00;55229.56;4996532;28;20425;-63
2021/06/07 07:44:22;;;;;;;7.43;6.63;;;;;;;-148.58;100.00;55229.56;5010976;28;20101;-62
2021/06/07 07:46:47;;;;;;;6.15;5.50;;;;;;;-148.58;100.00;55229.56;4991308;28;20031;-64
2021/06/07 07:49:13;;;;;;;5.38;4.85;;;;;;;-148.58;100.00;55229.56;4991601;28;20393;-67
2021/06/07 07:51:40;;;;;;;5.78;4.90;;;;;;;-148.58;100.00;55229.56;4980152;28;20494;-66
2021/06/07 07:54:07;;;;;;;6.47;3.85;;;;;;;-148.58;100.00;55229.56;4978857;28;20127;-66
2021/06/07 07:56:33;;;;;;;4.57;3.90;;;;;;;-148.58;100.00;55229.56;4984599;28;20076;-66
2021/06/07 07:59:01;;;;;;;4.22;3.30;;;;;;;-148.58;100.00;55229.56;4991037;28;20038;-66
2021/06/07 08:01:26;;;;;;;3.22;2.92;;;;;;;-148.58;100.00;55229.56;4973585;28;20061;-65
2021/06/07 08:03:52;;;;;;;2.92;2.65;;;;;;;-148.58;100.00;55229.56;4982977;28;20105;-68
2021/06/07 08:06:17;;;;;;;3.05;2.67;;;;;;;-148.58;100.00;55229.56;4991716;28;20057;-64
2021/06/07 08:08:43;;;;;;;3.38;2.47;;;;;;;-148.58;100.00;55229.56;4992131;28;20022;-65
2021/06/07 08:11:09;;;;;;;3.90;2.38;;;;;;;-148.58;100.00;55229.56;4991836;28;20031;-64
2021/06/07 08:13:34;;;;;;;1.90;1.77;;;;;;;-148.58;100.00;55229.56;4964400;28;20029;-65
2021/06/07 08:15:59;;;;;;;3.17;1.90;;;;;;;-148.58;100.00;55229.56;4991839;28;20057;-64
2021/06/07 08:18:25;;;;;;;2.45;1.98;;;;;;;-148.58;100.00;55229.56;4988263;28;20092;-65
2021/06/07 08:20:51;;;;;;;2.38;1.40;;;;;;;-148.58;100.00;55229.56;4990390;28;20018;-65
2021/06/07 08:23:16;;;;;;;2.05;1.50;;;;;;;-148.58;100.00;55229.56;4990679;28;20409;-65
2021/06/07 08:25:42;;;;;;;2.40;1.40;;;;;;;-148.58;100.00;55229.56;4987325;28;20034;-66
2021/06/07 08:28:07;;;;;;;1.83;1.48;;;;;;;-148.58;100.00;55229.56;4993572;28;20049;-65
2021/06/07 08:30:34;;;;;;;1.30;1.20;;;;;;;-148.58;100.00;55229.56;4989059;28;20054;-64
2021/06/07 08:33:00;;;;;;;1.67;1.10;;;;;;;-148.58;100.00;55229.56;4990244;28;20034;-65
2021/06/07 08:35:25;;;;;;;1.77;0.90;;;;;;;-148.58;100.00;55229.56;4971549;28;20026;-66
2021/06/07 08:37:51;;;;;;;1.20;1.10;;;;;;;-148.58;100.00;55229.56;4984234;28;20050;-64
2021/06/07 08:40:16;;;;;;;3.30;1.13;;;;;;;-148.58;100.00;55229.56;4997082;28;20482;-65
2021/06/07 08:42:43;;;;;;;1.58;0.70;;;;;;;-148.58;100.00;55229.56;4990857;28;20455;-64
2021/06/07 08:45:11;;;;;;;1.35;0.70;;;;;;;-148.58;100.00;55229.56;4991453;28;20474;-64
2021/06/07 08:47:40;;;;;;;1.75;0.90;;;;;;;-148.58;100.00;55229.56;4973959;28;20038;-65
2021/06/07 08:50:06;;;;;;;1.38;0.60;;;;;;;-148.58;100.00;55229.56;4992039;28;20026;-64
2021/06/07 08:52:32;;;;;;;1.48;0.70;;;;;;;-148.58;100.00;55229.56;5000636;28;20105;-64
2021/06/07 08:54:58;;;;;;;1.40;0.82;;;;;;;-148.58;100.00;55229.56;4991926;28;20030;-65
2021/06/07 08:57:24;;;;;;;0.73;0.47;;;;;;;-148.58;100.00;55229.56;4992420;28;20038;-64
2021/06/07 08:59:50;;;;;;;0.85;0.47;;;;;;;-148.58;100.00;55229.56;4995605;28;20027;-66
2021/06/07 09:02:15;;;;;;;1.98;0.55;;;;;;;-148.58;100.00;55229.56;4994266;28;20033;-65
2021/06/07 09:04:51;;;;;;;0.80;0.60;;;;;;;-148.58;100.00;55229.56;4993991;28;20029;-63
2021/06/07 09:07:17;;;;;;;1.58;0.57;;;;;;;-148.58;100.00;55229.56;4993973;28;20076;-64
2021/06/07 09:10:03;;;;;;;2.75;0.30;;;;;;;-148.58;100.00;55229.56;4994763;28;20038;-66
2021/06/07 09:12:29;;;;;;;2.83;0.65;;;;;;;-148.58;100.00;55229.56;5005040;28;20033;-67
2021/06/07 09:14:54;;;;;;;2.05;0.82;;;;;;;-148.58;100.00;55229.56;5006595;28;20073;-67
2021/06/07 09:17:21;;;;;;;3.53;0.60;;;;;;;-148.58;100.00;55229.56;4997376;28;20319;-62
2021/06/07 09:19:47;;;;;;;1.80;0.68;;;;;;;-148.58;100.00;55229.56;5014635;28;20053;-69
2021/06/07 09:22:23;;;;;;;3.45;0.93;;;;;;;-148.58;100.00;55229.56;5014224;28;20490;-62
2021/06/07 09:25:02;;;;;;;0.98;0.55;;;;;;;-148.58;100.00;55229.56;5009240;28;20109;-63
2021/06/07 09:27:28;;;;;;;0.43;0.30;;;;;;;-148.58;100.00;55229.56;4995302;28;20496;-66
2021/06/07 09:29:54;;;;;;;1.75;0.50;;;;;;;-148.58;100.00;55229.56;4995787;28;20034;-70
2021/06/07 09:32:20;;;;;;;1.60;0.63;;;;;;;-148.58;100.00;55229.56;4995546;28;20026;-64
2021/06/07 09:34:45;;;;;;;2.78;0.35;;;;;;;-148.58;100.00;55229.56;4994015;28;20069;-65
2021/06/07 09:37:12;;;;;;;0.80;0.28;;;;;;;-148.58;100.00;55229.56;4995468;28;20026;-67
2021/06/07 09:39:40;;;;;;;1.23;0.50;;;;;;;-148.58;100.00;55229.56;4995056;28;20034;-62
2021/06/07 09:42:08;;;;;;;2.17;0.73;;;;;;;-148.58;100.00;55229.56;4995094;28;20026;-66
2021/06/07 09:44:43;;;;;;;0.50;0.40;;;;;;;-148.58;100.00;55229.56;5043543;23;20050;-70
2021/06/07 09:47:13;;;;;;;1.95;0.20;;;;;;;-148.58;100.00;55229.56;5031510;28;20029;-68
2021/06/07 09:49:57;;;;;;;1.98;0.50;;;;;;;-148.58;100.00;55229.56;5033479;28;20025;-68
2021/06/07 09:52:25;;;;;;;0.50;0.40;;;;;;;-148.58;100.00;55229.56;5032421;28;20028;-65
2021/06/07 09:55:00;;;;;;;1.38;0.10;;;;;;;-148.58;100.00;55229.56;5038108;28;20040;-63
2021/06/07 09:57:39;;;;;;;;;;;;;;;-148.58;100.00;55229.56;5030269;28;20368;-66
2021/06/07 10:00:05;;;;;;;1.35;0.45;;;;;;;-148.58;100.00;55229.56;5033070;28;19917;-67
2021/06/07 10:02:35;;;;;;;0.65;0.28;;;;;;;-148.58;100.00;55229.56;5033692;28;20271;-63
2021/06/07 10:05:01;;;;;;;2.25;0.43;;;;;;;-148.58;100.00;55229.56;5032780;28;20033;-64
2021/06/07 10:07:27;;;;;;;0.60;0.40;;;;;;;-148.58;100.00;55229.56;5027184;28;20112;-64
2021/06/07 10:10:16;;;;;;;1.02;0.40;;;;;;;-148.58;100.00;55229.56;5028541;28;20071;-64
2021/06/07 10:12:44;;;;;;;0.73;0.40;;;;;;;-148.58;100.00;55229.56;5034507;28;20028;-69
2021/06/07 10:15:12;;;;;;;0.90;0.30;;;;;;;-148.58;100.00;55229.56;5035196;28;20029;-66
2021/06/07 10:17:38;;;;;;;6.97;0.63;;;;;;;-148.58;100.00;55229.56;5032124;28;20100;-65
2021/06/07 10:22:40;;;;;;;3.17;0.30;;;;;;;-148.58;100.00;55229.56;5024048;28;20032;-63
2021/06/07 10:25:07;;;;;;;0.65;0.43;;;;;;;-148.58;100.00;55229.56;5034475;28;20030;-63
2021/06/07 10:27:33;;;;;;;0.95;0.57;;;;;;;-148.58;100.00;55229.56;5017774;28;20424;-62
2021/06/07 10:29:58;;;;;;;1.75;0.73;;;;;;;-148.58;100.00;55229.56;5031735;28;20029;-62
2021/06/07 10:32:30;;;;;;;3.25;0.75;;;;;;;-148.58;100.00;55229.56;5031373;28;20033;-62
2021/06/07 10:34:57;;;;;;;1.98;0.82;;;;;;;-148.58;100.00;55229.56;5015695;28;20639;-61
2021/06/07 10:37:25;;;;;;;0.60;0.20;;;;;;;-148.58;100.00;55229.56;5032418;28;20112;-62
2021/06/07 10:39:51;;;;;;;2.08;0.32;;;;;;;-148.58;100.00;55229.56;5032551;28;20030;-62
2021/06/07 10:42:20;;;;;;;0.40;0.20;;;;;;;-148.58;100.00;55229.56;5032708;28;20029;-62
2021/06/07 10:44:49;;;;;;;1.27;0.20;;;;;;;-148.58;100.00;55229.56;5032309;28;20079;-62
2021/06/07 10:47:17;;;;;;;0.73;0.38;;;;;;;-148.58;100.00;55229.56;5032111;28;20040;-61
2021/06/07 10:49:46;;;;;;;0.75;0.60;;;;;;;-148.58;100.00;55229.56;5033417;28;20026;-62
2021/06/07 10:52:22;;;;;;;1.85;0.63;;;;;;;-148.58;100.00;55229.56;5034165;28;20027;-62
2021/06/07 10:54:59;;;;;;;1.65;0.50;;;;;;;-148.58;100.00;55229.56;5033737;28;20033;-62
2021/06/07 10:57:24;;;;;;;0.75;0.65;;;;;;;-148.58;100.00;55229.56;5034537;28;20052;-62
2021/06/07 10:59:52;;;;;;;1.45;0.30;;;;;;;-148.58;100.00;55229.56;5033241;28;20057;-61
2021/06/07 11:02:19;;;;;;;0.10;0.10;;;;;;;-148.58;100.00;55229.56;5033660;28;20404;-62
2021/06/07 11:04:44;;;;;;;0.88;0.35;;;;;;;-148.58;100.00;55229.56;5032203;28;20060;-62
2021/06/07 11:07:19;;;;;;;1.08;0.30;;;;;;;-148.58;100.00;55229.56;5018820;28;20059;-61
2021/06/07 11:10:02;;;;;;;;;;;;;;;-148.58;100.00;55229.56;5041624;28;20074;-62
2021/06/07 11:12:33;;;;;;;0.77;0.30;;;;;;;-148.58;100.00;55229.56;5033114;28;19913;-62